AUA549 LOWW-LHBP
Flight info
| Callsign | AUA549 |
|---|---|
| Flight time | 0h 30m |
| Altitude | 23000 |
| Route | ADAMA Z647 ANEXA |
| Aircraft | A20N/M-SDE2E3FGHIRWXY/LB1 |
Departure
| Time | 2026-04-26 09:17 |
|---|---|
| Airport | Vienna International Airport (LOWW) |
Arrival
| Time | 2026-04-26 09:47 |
|---|---|
| Airport | Budapest Liszt Ferenc International Airport (LHBP) |
| Time | Latitude | Longitude | Altitude | Speed | Heading |
|---|---|---|---|---|---|
| 2026-04-26 08:49 | 48.11897 | 16.56767 | 622 ft | 0 kts | 206° |
| 2026-04-26 09:07 | 48.11917 | 16.56780 | 621 ft | 4 kts | 199° |
| 2026-04-26 09:08 | 48.11943 | 16.56790 | 620 ft | 4 kts | 182° |
| 2026-04-26 09:08 | 48.11968 | 16.56785 | 620 ft | 4 kts | 142° |
| 2026-04-26 09:08 | 48.11976 | 16.56774 | 609 ft | 0 kts | 116° |
| 2026-04-26 09:10 | 48.11970 | 16.56791 | 615 ft | 5 kts | 116° |
| 2026-04-26 09:11 | 48.11940 | 16.56883 | 620 ft | 13 kts | 116° |
| 2026-04-26 09:11 | 48.11903 | 16.56996 | 621 ft | 12 kts | 116° |
| 2026-04-26 09:11 | 48.11861 | 16.57127 | 617 ft | 15 kts | 114° |
| 2026-04-26 09:11 | 48.11840 | 16.57264 | 622 ft | 11 kts | 114° |
| 2026-04-26 09:12 | 48.11786 | 16.57357 | 620 ft | 14 kts | 157° |
| 2026-04-26 09:12 | 48.11688 | 16.57399 | 609 ft | 16 kts | 165° |
| 2026-04-26 09:12 | 48.11580 | 16.57445 | 617 ft | 14 kts | 163° |
| 2026-04-26 09:12 | 48.11541 | 16.57460 | 614 ft | 2 kts | 169° |
| 2026-04-26 09:13 | 48.11486 | 16.57457 | 609 ft | 12 kts | 199° |
| 2026-04-26 09:13 | 48.11397 | 16.57394 | 609 ft | 16 kts | 206° |
| 2026-04-26 09:13 | 48.11343 | 16.57355 | 610 ft | 0 kts | 206° |
| 2026-04-26 09:14 | 48.11320 | 16.57339 | 617 ft | 8 kts | 206° |
| 2026-04-26 09:14 | 48.11277 | 16.57308 | 616 ft | 13 kts | 205° |
| 2026-04-26 09:14 | 48.11175 | 16.57382 | 614 ft | 16 kts | 115° |
| 2026-04-26 09:14 | 48.11141 | 16.57492 | 611 ft | 19 kts | 115° |
| 2026-04-26 09:15 | 48.11024 | 16.57636 | 609 ft | 20 kts | 201° |
| 2026-04-26 09:15 | 48.10944 | 16.57577 | 617 ft | 18 kts | 213° |
| 2026-04-26 09:15 | 48.10931 | 16.57486 | 613 ft | 0 kts | 301° |
| 2026-04-26 09:15 | 48.10936 | 16.57471 | 617 ft | 4 kts | 297° |
| 2026-04-26 09:16 | 48.10977 | 16.57346 | 615 ft | 42 kts | 296° |
| 2026-04-26 09:16 | 48.11202 | 16.56659 | 616 ft | 102 kts | 295° |
| 2026-04-26 09:16 | 48.11571 | 16.55485 | 724 ft | 135 kts | 298° |
| 2026-04-26 09:16 | 48.11936 | 16.54190 | 1154 ft | 143 kts | 300° |
| 2026-04-26 09:17 | 48.12175 | 16.52735 | 1879 ft | 140 kts | 277° |
| 2026-04-26 09:17 | 48.11917 | 16.51327 | 2533 ft | 153 kts | 245° |
| 2026-04-26 09:17 | 48.11063 | 16.50190 | 2891 ft | 178 kts | 220° |
| 2026-04-26 09:17 | 48.09946 | 16.49151 | 3248 ft | 198 kts | 216° |
| 2026-04-26 09:18 | 48.08768 | 16.48116 | 3812 ft | 194 kts | 216° |
| 2026-04-26 09:18 | 48.07502 | 16.47362 | 4256 ft | 206 kts | 193° |
| 2026-04-26 09:18 | 48.06048 | 16.47476 | 4746 ft | 212 kts | 174° |
| 2026-04-26 09:18 | 48.04577 | 16.47782 | 5225 ft | 215 kts | 175° |
| 2026-04-26 09:19 | 48.03086 | 16.48134 | 5672 ft | 219 kts | 167° |
| 2026-04-26 09:19 | 48.02218 | 16.48781 | 5953 ft | 224 kts | 143° |
| 2026-04-26 09:19 | 48.01669 | 16.49596 | 6100 ft | 232 kts | 125° |
| 2026-04-26 09:19 | 48.01042 | 16.51903 | 6364 ft | 255 kts | 94° |
| 2026-04-26 09:20 | 48.00860 | 16.54661 | 6855 ft | 278 kts | 86° |
| 2026-04-26 09:20 | 48.00771 | 16.57633 | 7375 ft | 299 kts | 86° |
| 2026-04-26 09:20 | 48.00642 | 16.60799 | 8229 ft | 307 kts | 88° |
| 2026-04-26 09:20 | 48.00458 | 16.63988 | 9174 ft | 313 kts | 89° |
| 2026-04-26 09:21 | 48.00234 | 16.67248 | 10105 ft | 319 kts | 90° |
| 2026-04-26 09:21 | 47.99989 | 16.70619 | 10653 ft | 338 kts | 90° |
| 2026-04-26 09:21 | 47.99725 | 16.74248 | 11006 ft | 361 kts | 91° |
| 2026-04-26 09:21 | 47.99441 | 16.78065 | 11668 ft | 371 kts | 91° |
| 2026-04-26 09:22 | 47.99150 | 16.81881 | 12510 ft | 374 kts | 91° |
| 2026-04-26 09:22 | 47.98850 | 16.85803 | 13360 ft | 379 kts | 91° |
| 2026-04-26 09:22 | 47.98554 | 16.89695 | 14170 ft | 383 kts | 91° |
| 2026-04-26 09:22 | 47.98251 | 16.93675 | 14889 ft | 387 kts | 91° |
| 2026-04-26 09:23 | 47.97947 | 16.97656 | 15610 ft | 390 kts | 91° |
| 2026-04-26 09:23 | 47.97637 | 17.01707 | 16341 ft | 394 kts | 91° |
| 2026-04-26 09:23 | 47.97324 | 17.05798 | 17093 ft | 398 kts | 92° |
| 2026-04-26 09:23 | 47.97008 | 17.09904 | 17806 ft | 402 kts | 92° |
| 2026-04-26 09:24 | 47.96685 | 17.14086 | 18504 ft | 406 kts | 92° |
| 2026-04-26 09:24 | 47.96357 | 17.18305 | 19129 ft | 410 kts | 92° |
| 2026-04-26 09:24 | 47.96030 | 17.22504 | 19736 ft | 413 kts | 92° |
| 2026-04-26 09:24 | 47.95694 | 17.26793 | 20368 ft | 416 kts | 92° |
| 2026-04-26 09:25 | 47.95353 | 17.31114 | 20985 ft | 419 kts | 92° |
| 2026-04-26 09:25 | 47.95013 | 17.35403 | 21587 ft | 422 kts | 92° |
| 2026-04-26 09:25 | 47.94662 | 17.39821 | 22181 ft | 426 kts | 92° |
| 2026-04-26 09:25 | 47.94316 | 17.44164 | 22767 ft | 429 kts | 92° |
| 2026-04-26 09:26 | 47.93956 | 17.48655 | 23108 ft | 433 kts | 92° |
| 2026-04-26 09:26 | 47.93601 | 17.53052 | 23171 ft | 433 kts | 92° |
| 2026-04-26 09:26 | 47.93236 | 17.57536 | 23171 ft | 433 kts | 92° |
| 2026-04-26 09:26 | 47.92872 | 17.62016 | 23164 ft | 433 kts | 92° |
| 2026-04-26 09:27 | 47.92506 | 17.66476 | 23172 ft | 433 kts | 92° |
| 2026-04-26 09:27 | 47.92143 | 17.70888 | 23174 ft | 433 kts | 93° |
| 2026-04-26 09:27 | 47.91774 | 17.75366 | 23170 ft | 433 kts | 93° |
| 2026-04-26 09:27 | 47.91408 | 17.79785 | 23172 ft | 434 kts | 93° |
| 2026-04-26 09:28 | 47.91035 | 17.84252 | 23169 ft | 434 kts | 93° |
| 2026-04-26 09:28 | 47.90660 | 17.88733 | 23174 ft | 434 kts | 93° |
| 2026-04-26 09:28 | 47.90283 | 17.93214 | 23166 ft | 434 kts | 93° |
| 2026-04-26 09:28 | 47.89909 | 17.97647 | 23166 ft | 434 kts | 93° |
| 2026-04-26 09:29 | 47.89528 | 18.02123 | 23157 ft | 434 kts | 93° |
| 2026-04-26 09:29 | 47.89147 | 18.06593 | 23164 ft | 435 kts | 93° |
| 2026-04-26 09:29 | 47.88767 | 18.11019 | 23153 ft | 435 kts | 93° |
| 2026-04-26 09:29 | 47.88380 | 18.15508 | 23158 ft | 435 kts | 93° |
| 2026-04-26 09:30 | 47.87996 | 18.19953 | 23147 ft | 435 kts | 93° |
| 2026-04-26 09:30 | 47.87607 | 18.24420 | 22892 ft | 435 kts | 93° |
| 2026-04-26 09:30 | 47.87213 | 18.28943 | 22263 ft | 437 kts | 93° |
| 2026-04-26 09:30 | 47.86822 | 18.33417 | 21370 ft | 443 kts | 93° |
| 2026-04-26 09:31 | 47.86419 | 18.37999 | 20672 ft | 443 kts | 93° |
| 2026-04-26 09:31 | 47.86014 | 18.42484 | 20167 ft | 437 kts | 95° |
| 2026-04-26 09:31 | 47.85181 | 18.46861 | 19594 ft | 439 kts | 110° |
| 2026-04-26 09:31 | 47.83644 | 18.50746 | 19046 ft | 440 kts | 127° |
| 2026-04-26 09:32 | 47.81471 | 18.53929 | 18508 ft | 437 kts | 144° |
| 2026-04-26 09:32 | 47.78903 | 18.56232 | 17903 ft | 432 kts | 154° |
| 2026-04-26 09:32 | 47.76219 | 18.58248 | 17346 ft | 427 kts | 154° |
| 2026-04-26 09:32 | 47.73597 | 18.60316 | 16785 ft | 424 kts | 152° |
| 2026-04-26 09:33 | 47.71048 | 18.62502 | 16237 ft | 421 kts | 150° |
| 2026-04-26 09:33 | 47.68678 | 18.65035 | 15672 ft | 418 kts | 139° |
| 2026-04-26 09:33 | 47.66641 | 18.68094 | 15123 ft | 415 kts | 130° |
| 2026-04-26 09:33 | 47.64748 | 18.71238 | 14569 ft | 413 kts | 130° |
| 2026-04-26 09:34 | 47.62832 | 18.74413 | 13997 ft | 412 kts | 130° |
| 2026-04-26 09:34 | 47.60911 | 18.77582 | 13441 ft | 409 kts | 131° |
| 2026-04-26 09:34 | 47.59013 | 18.80704 | 12885 ft | 405 kts | 131° |
| 2026-04-26 09:34 | 47.57142 | 18.83774 | 12341 ft | 402 kts | 131° |
| 2026-04-26 09:35 | 47.55256 | 18.86864 | 11792 ft | 400 kts | 131° |
| 2026-04-26 09:35 | 47.53406 | 18.89890 | 11268 ft | 397 kts | 131° |
| 2026-04-26 09:35 | 47.51554 | 18.92917 | 10731 ft | 395 kts | 131° |
| 2026-04-26 09:35 | 47.49752 | 18.95857 | 10526 ft | 384 kts | 131° |
| 2026-04-26 09:36 | 47.47984 | 18.98738 | 10365 ft | 370 kts | 131° |
| 2026-04-26 09:36 | 47.46274 | 19.01524 | 10241 ft | 357 kts | 131° |
| 2026-04-26 09:36 | 47.44643 | 19.04178 | 10121 ft | 345 kts | 131° |
| 2026-04-26 09:36 | 47.43058 | 19.06757 | 9821 ft | 340 kts | 131° |
| 2026-04-26 09:37 | 47.41465 | 19.09344 | 9461 ft | 336 kts | 131° |
| 2026-04-26 09:37 | 47.39894 | 19.11893 | 9078 ft | 334 kts | 131° |
| 2026-04-26 09:37 | 47.38354 | 19.14389 | 8703 ft | 331 kts | 131° |
| 2026-04-26 09:37 | 47.36806 | 19.16895 | 8319 ft | 329 kts | 131° |
| 2026-04-26 09:38 | 47.35263 | 19.19393 | 7950 ft | 327 kts | 131° |
| 2026-04-26 09:38 | 47.33741 | 19.21852 | 7436 ft | 323 kts | 131° |
| 2026-04-26 09:38 | 47.32230 | 19.24291 | 6891 ft | 321 kts | 130° |
| 2026-04-26 09:38 | 47.30740 | 19.26690 | 6361 ft | 318 kts | 130° |
| 2026-04-26 09:39 | 47.29261 | 19.29073 | 5939 ft | 310 kts | 130° |
| 2026-04-26 09:39 | 47.27815 | 19.31402 | 5580 ft | 307 kts | 130° |
| 2026-04-26 09:39 | 47.26369 | 19.33722 | 5298 ft | 302 kts | 130° |
| 2026-04-26 09:39 | 47.24964 | 19.35975 | 5053 ft | 296 kts | 130° |
| 2026-04-26 09:40 | 47.23556 | 19.38142 | 4928 ft | 287 kts | 132° |
| 2026-04-26 09:40 | 47.22162 | 19.40190 | 4800 ft | 278 kts | 133° |
| 2026-04-26 09:40 | 47.20904 | 19.42282 | 4648 ft | 267 kts | 116° |
| 2026-04-26 09:40 | 47.20377 | 19.44804 | 4536 ft | 271 kts | 86° |
| 2026-04-26 09:41 | 47.20731 | 19.47523 | 4415 ft | 267 kts | 59° |
| 2026-04-26 09:41 | 47.21826 | 19.49544 | 4289 ft | 249 kts | 31° |
| 2026-04-26 09:41 | 47.23391 | 19.50463 | 4162 ft | 241 kts | 2° |
| 2026-04-26 09:41 | 47.25047 | 19.50376 | 4004 ft | 240 kts | 353° |
| 2026-04-26 09:42 | 47.26728 | 19.50184 | 3751 ft | 240 kts | 354° |
| 2026-04-26 09:42 | 47.28350 | 19.50031 | 3613 ft | 225 kts | 349° |
| 2026-04-26 09:42 | 47.29786 | 19.49285 | 3289 ft | 218 kts | 327° |
| 2026-04-26 09:42 | 47.30896 | 19.47759 | 2870 ft | 218 kts | 314° |
| 2026-04-26 09:43 | 47.31900 | 19.46105 | 2556 ft | 212 kts | 314° |
| 2026-04-26 09:43 | 47.32845 | 19.44564 | 2499 ft | 198 kts | 314° |
| 2026-04-26 09:43 | 47.33746 | 19.43127 | 2337 ft | 186 kts | 315° |
| 2026-04-26 09:43 | 47.34615 | 19.41778 | 2065 ft | 176 kts | 315° |
| 2026-04-26 09:44 | 47.35432 | 19.40489 | 1841 ft | 168 kts | 315° |
| 2026-04-26 09:44 | 47.36192 | 19.39231 | 1654 ft | 155 kts | 313° |
| 2026-04-26 09:44 | 47.36839 | 19.38133 | 1523 ft | 130 kts | 315° |
| 2026-04-26 09:44 | 47.37421 | 19.37226 | 1339 ft | 111 kts | 316° |
| 2026-04-26 09:45 | 47.37928 | 19.36433 | 1149 ft | 105 kts | 314° |
| 2026-04-26 09:45 | 47.38448 | 19.35637 | 1017 ft | 109 kts | 312° |
| 2026-04-26 09:45 | 47.38968 | 19.34795 | 912 ft | 113 kts | 310° |
| 2026-04-26 09:45 | 47.39493 | 19.33926 | 813 ft | 113 kts | 309° |
| 2026-04-26 09:46 | 47.40005 | 19.33060 | 734 ft | 113 kts | 309° |
| 2026-04-26 09:46 | 47.40543 | 19.32223 | 682 ft | 115 kts | 309° |
| 2026-04-26 09:46 | 47.41087 | 19.31346 | 618 ft | 115 kts | 309° |
| 2026-04-26 09:46 | 47.41629 | 19.30457 | 552 ft | 116 kts | 309° |
| 2026-04-26 09:47 | 47.42167 | 19.29594 | 487 ft | 115 kts | 309° |
| 2026-04-26 09:47 | 47.42706 | 19.28737 | 427 ft | 106 kts | 309° |
| 2026-04-26 09:47 | 47.43020 | 19.28208 | 456 ft | 43 kts | 312° |
| 2026-04-26 09:47 | 47.43227 | 19.27875 | 458 ft | 41 kts | 313° |
| 2026-04-26 09:48 | 47.43346 | 19.27550 | 461 ft | 34 kts | 283° |
| 2026-04-26 09:48 | 47.43384 | 19.27304 | 471 ft | 12 kts | 282° |
| 2026-04-26 09:48 | 47.43403 | 19.27173 | 467 ft | 14 kts | 282° |
| 2026-04-26 09:48 | 47.43427 | 19.27029 | 474 ft | 14 kts | 287° |
| 2026-04-26 09:49 | 47.43481 | 19.26912 | 474 ft | 14 kts | 315° |
| 2026-04-26 09:49 | 47.43550 | 19.26800 | 476 ft | 16 kts | 312° |
| 2026-04-26 09:49 | 47.43626 | 19.26677 | 475 ft | 16 kts | 312° |
| 2026-04-26 09:49 | 47.43702 | 19.26551 | 471 ft | 12 kts | 312° |
| 2026-04-26 09:50 | 47.43752 | 19.26460 | 482 ft | 10 kts | 288° |
| 2026-04-26 09:50 | 47.43724 | 19.26382 | 480 ft | 10 kts | 221° |
| 2026-04-26 09:50 | 47.43664 | 19.26348 | 481 ft | 8 kts | 148° |
| 2026-04-26 09:50 | 47.43608 | 19.26438 | 477 ft | 15 kts | 132° |
| 2026-04-26 09:51 | 47.43565 | 19.26508 | 477 ft | 8 kts | 139° |
| 2026-04-26 09:51 | 47.43532 | 19.26503 | 477 ft | 4 kts | 211° |
| 2026-04-26 09:51 | 47.43510 | 19.26473 | 474 ft | 4 kts | 224° |
| 2026-04-26 09:51 | 47.43509 | 19.26471 | 475 ft | 0 kts | 224° |